sensor_id;sensor_type;location;lat;lon;timestamp;P1;durP1;ratioP1;P2;durP2;ratioP2
39016;SDS011;24784;45.582;5.276;2022-12-26T00:00:54;21.85;;;7.25;;
39016;SDS011;24784;45.582;5.276;2022-12-26T00:03:21;12.07;;;6.13;;
39016;SDS011;24784;45.582;5.276;2022-12-26T00:05:46;11.80;;;6.47;;
39016;SDS011;24784;45.582;5.276;2022-12-26T00:08:12;9.50;;;6.63;;
39016;SDS011;24784;45.582;5.276;2022-12-26T00:10:38;13.30;;;6.38;;
39016;SDS011;24784;45.582;5.276;2022-12-26T00:13:04;15.23;;;6.30;;
39016;SDS011;24784;45.582;5.276;2022-12-26T00:15:30;11.57;;;6.80;;
39016;SDS011;24784;45.582;5.276;2022-12-26T00:17:56;16.92;;;6.80;;
39016;SDS011;24784;45.582;5.276;2022-12-26T00:20:21;12.02;;;6.50;;
39016;SDS011;24784;45.582;5.276;2022-12-26T00:22:47;12.25;;;6.68;;
39016;SDS011;24784;45.582;5.276;2022-12-26T00:25:13;12.93;;;6.38;;
39016;SDS011;24784;45.582;5.276;2022-12-26T00:27:39;12.45;;;6.90;;
39016;SDS011;24784;45.582;5.276;2022-12-26T00:30:05;11.85;;;6.97;;
39016;SDS011;24784;45.582;5.276;2022-12-26T00:32:53;12.20;;;6.30;;
39016;SDS011;24784;45.582;5.276;2022-12-26T00:35:19;11.90;;;6.47;;
39016;SDS011;24784;45.582;5.276;2022-12-26T00:37:45;11.90;;;6.30;;
39016;SDS011;24784;45.582;5.276;2022-12-26T00:40:11;14.02;;;6.78;;
39016;SDS011;24784;45.582;5.276;2022-12-26T00:42:37;14.65;;;7.60;;
39016;SDS011;24784;45.582;5.276;2022-12-26T00:45:03;9.48;;;6.60;;
39016;SDS011;24784;45.582;5.276;2022-12-26T00:47:29;13.80;;;6.82;;
39016;SDS011;24784;45.582;5.276;2022-12-26T00:49:55;12.55;;;6.95;;
39016;SDS011;24784;45.582;5.276;2022-12-26T00:52:21;13.15;;;6.53;;
39016;SDS011;24784;45.582;5.276;2022-12-26T00:54:46;13.20;;;6.47;;
39016;SDS011;24784;45.582;5.276;2022-12-26T00:57:12;14.25;;;6.25;;
39016;SDS011;24784;45.582;5.276;2022-12-26T00:59:38;11.63;;;6.43;;
39016;SDS011;24784;45.582;5.276;2022-12-26T01:02:04;16.58;;;7.03;;
39016;SDS011;24784;45.582;5.276;2022-12-26T01:04:50;13.82;;;5.90;;
39016;SDS011;24784;45.582;5.276;2022-12-26T01:07:15;11.85;;;6.93;;
39016;SDS011;24784;45.582;5.276;2022-12-26T01:09:41;12.93;;;7.22;;
39016;SDS011;24784;45.582;5.276;2022-12-26T01:12:07;12.82;;;6.93;;
39016;SDS011;24784;45.582;5.276;2022-12-26T01:14:33;12.77;;;6.78;;
39016;SDS011;24784;45.582;5.276;2022-12-26T01:16:59;15.02;;;6.22;;
39016;SDS011;24784;45.582;5.276;2022-12-26T01:19:24;17.02;;;6.88;;
39016;SDS011;24784;45.582;5.276;2022-12-26T01:21:50;13.15;;;5.90;;
39016;SDS011;24784;45.582;5.276;2022-12-26T01:24:16;12.63;;;6.07;;
39016;SDS011;24784;45.582;5.276;2022-12-26T01:26:42;17.70;;;6.57;;
39016;SDS011;24784;45.582;5.276;2022-12-26T01:29:08;12.77;;;6.40;;
39016;SDS011;24784;45.582;5.276;2022-12-26T01:31:34;12.25;;;5.85;;
39016;SDS011;24784;45.582;5.276;2022-12-26T01:34:00;13.65;;;5.97;;
39016;SDS011;24784;45.582;5.276;2022-12-26T01:36:25;11.00;;;5.95;;
39016;SDS011;24784;45.582;5.276;2022-12-26T01:38:51;12.48;;;5.85;;
39016;SDS011;24784;45.582;5.276;2022-12-26T01:41:17;7.90;;;5.80;;
39016;SDS011;24784;45.582;5.276;2022-12-26T01:46:26;12.90;;;6.00;;
39016;SDS011;24784;45.582;5.276;2022-12-26T01:48:57;13.50;;;6.28;;
39016;SDS011;24784;45.582;5.276;2022-12-26T01:53:57;16.45;;;6.82;;
39016;SDS011;24784;45.582;5.276;2022-12-26T01:56:28;14.70;;;6.75;;
39016;SDS011;24784;45.582;5.276;2022-12-26T02:01:58;14.07;;;6.50;;
39016;SDS011;24784;45.582;5.276;2022-12-26T02:04:25;10.00;;;5.85;;
39016;SDS011;24784;45.582;5.276;2022-12-26T02:07:13;12.63;;;6.03;;
39016;SDS011;24784;45.582;5.276;2022-12-26T02:09:39;15.68;;;6.70;;
39016;SDS011;24784;45.582;5.276;2022-12-26T02:14:43;14.00;;;6.25;;
39016;SDS011;24784;45.582;5.276;2022-12-26T02:17:09;12.27;;;5.93;;
39016;SDS011;24784;45.582;5.276;2022-12-26T02:35:40;10.65;;;5.70;;
39016;SDS011;24784;45.582;5.276;2022-12-26T02:38:28;12.77;;;5.70;;
39016;SDS011;24784;45.582;5.276;2022-12-26T02:41:11;18.55;;;5.63;;
39016;SDS011;24784;45.582;5.276;2022-12-26T02:44:01;11.88;;;5.30;;
39016;SDS011;24784;45.582;5.276;2022-12-26T02:46:48;13.02;;;5.47;;
39016;SDS011;24784;45.582;5.276;2022-12-26T02:52:05;9.88;;;5.78;;
39016;SDS011;24784;45.582;5.276;2022-12-26T02:55:05;13.25;;;5.57;;
39016;SDS011;24784;45.582;5.276;2022-12-26T02:57:58;10.70;;;5.28;;
39016;SDS011;24784;45.582;5.276;2022-12-26T03:01:09;11.35;;;5.80;;
39016;SDS011;24784;45.582;5.276;2022-12-26T03:04:15;11.23;;;5.60;;
39016;SDS011;24784;45.582;5.276;2022-12-26T03:07:02;15.30;;;6.32;;
39016;SDS011;24784;45.582;5.276;2022-12-26T03:09:49;11.27;;;5.80;;
39016;SDS011;24784;45.582;5.276;2022-12-26T03:12:38;14.95;;;6.70;;
39016;SDS011;24784;45.582;5.276;2022-12-26T03:15:28;13.13;;;5.50;;
39016;SDS011;24784;45.582;5.276;2022-12-26T03:18:19;11.30;;;6.15;;
39016;SDS011;24784;45.582;5.276;2022-12-26T03:20:46;11.85;;;5.55;;
39016;SDS011;24784;45.582;5.276;2022-12-26T03:23:14;14.38;;;5.78;;
39016;SDS011;24784;45.582;5.276;2022-12-26T03:25:55;13.75;;;6.50;;
39016;SDS011;24784;45.582;5.276;2022-12-26T03:28:42;14.77;;;6.05;;
39016;SDS011;24784;45.582;5.276;2022-12-26T03:31:11;14.52;;;6.03;;
39016;SDS011;24784;45.582;5.276;2022-12-26T03:33:40;12.93;;;6.65;;
39016;SDS011;24784;45.582;5.276;2022-12-26T03:41:51;11.60;;;6.35;;
39016;SDS011;24784;45.582;5.276;2022-12-26T03:44:47;11.48;;;5.68;;
39016;SDS011;24784;45.582;5.276;2022-12-26T03:50:51;11.40;;;5.53;;
39016;SDS011;24784;45.582;5.276;2022-12-26T03:57:15;8.98;;;5.00;;
39016;SDS011;24784;45.582;5.276;2022-12-26T04:02:45;9.70;;;5.43;;
39016;SDS011;24784;45.582;5.276;2022-12-26T04:05:30;8.55;;;4.85;;
39016;SDS011;24784;45.582;5.276;2022-12-26T04:11:42;12.57;;;5.38;;
39016;SDS011;24784;45.582;5.276;2022-12-26T04:14:42;11.63;;;5.60;;
39016;SDS011;24784;45.582;5.276;2022-12-26T04:17:31;12.50;;;5.05;;
39016;SDS011;24784;45.582;5.276;2022-12-26T04:23:08;13.45;;;5.63;;
39016;SDS011;24784;45.582;5.276;2022-12-26T04:26:05;12.05;;;5.13;;
39016;SDS011;24784;45.582;5.276;2022-12-26T04:28:54;13.10;;;5.23;;
39016;SDS011;24784;45.582;5.276;2022-12-26T04:31:44;10.20;;;5.68;;
39016;SDS011;24784;45.582;5.276;2022-12-26T04:34:38;10.13;;;5.28;;
39016;SDS011;24784;45.582;5.276;2022-12-26T04:37:28;9.65;;;5.20;;
39016;SDS011;24784;45.582;5.276;2022-12-26T04:40:16;9.07;;;5.35;;
39016;SDS011;24784;45.582;5.276;2022-12-26T04:43:06;9.63;;;5.15;;
39016;SDS011;24784;45.582;5.276;2022-12-26T04:45:51;11.68;;;5.75;;
39016;SDS011;24784;45.582;5.276;2022-12-26T04:48:18;8.25;;;4.95;;
39016;SDS011;24784;45.582;5.276;2022-12-26T04:51:02;11.43;;;5.63;;
39016;SDS011;24784;45.582;5.276;2022-12-26T04:53:28;13.10;;;6.07;;
39016;SDS011;24784;45.582;5.276;2022-12-26T04:55:54;12.38;;;5.43;;
39016;SDS011;24784;45.582;5.276;2022-12-26T04:58:20;10.95;;;5.68;;
39016;SDS011;24784;45.582;5.276;2022-12-26T05:00:48;12.80;;;5.05;;
39016;SDS011;24784;45.582;5.276;2022-12-26T05:03:14;13.45;;;5.65;;
39016;SDS011;24784;45.582;5.276;2022-12-26T05:05:59;10.82;;;5.32;;
39016;SDS011;24784;45.582;5.276;2022-12-26T05:08:44;8.70;;;4.90;;
39016;SDS011;24784;45.582;5.276;2022-12-26T05:11:30;10.23;;;5.30;;
39016;SDS011;24784;45.582;5.276;2022-12-26T05:13:57;9.90;;;4.85;;
39016;SDS011;24784;45.582;5.276;2022-12-26T05:16:24;9.50;;;5.10;;
39016;SDS011;24784;45.582;5.276;2022-12-26T05:19:10;10.65;;;5.97;;
39016;SDS011;24784;45.582;5.276;2022-12-26T05:21:58;14.73;;;5.72;;
39016;SDS011;24784;45.582;5.276;2022-12-26T05:24:43;9.05;;;4.88;;
39016;SDS011;24784;45.582;5.276;2022-12-26T05:27:33;11.32;;;5.15;;
39016;SDS011;24784;45.582;5.276;2022-12-26T05:30:36;10.98;;;5.15;;
39016;SDS011;24784;45.582;5.276;2022-12-26T05:33:02;8.80;;;5.20;;
39016;SDS011;24784;45.582;5.276;2022-12-26T05:35:46;8.07;;;4.88;;
39016;SDS011;24784;45.582;5.276;2022-12-26T05:38:12;10.88;;;5.03;;
39016;SDS011;24784;45.582;5.276;2022-12-26T05:40:38;10.10;;;4.80;;
39016;SDS011;24784;45.582;5.276;2022-12-26T05:43:04;9.88;;;5.60;;
39016;SDS011;24784;45.582;5.276;2022-12-26T05:45:29;12.73;;;5.13;;
39016;SDS011;24784;45.582;5.276;2022-12-26T05:48:01;10.60;;;4.93;;
39016;SDS011;24784;45.582;5.276;2022-12-26T05:50:27;12.50;;;4.82;;
39016;SDS011;24784;45.582;5.276;2022-12-26T05:52:57;17.48;;;5.55;;
39016;SDS011;24784;45.582;5.276;2022-12-26T05:55:23;8.15;;;5.43;;
39016;SDS011;24784;45.582;5.276;2022-12-26T05:57:49;12.30;;;6.40;;
39016;SDS011;24784;45.582;5.276;2022-12-26T06:00:15;13.98;;;5.93;;
39016;SDS011;24784;45.582;5.276;2022-12-26T06:02:42;15.65;;;5.65;;
39016;SDS011;24784;45.582;5.276;2022-12-26T06:05:08;11.98;;;5.55;;
39016;SDS011;24784;45.582;5.276;2022-12-26T06:07:34;11.15;;;5.60;;
39016;SDS011;24784;45.582;5.276;2022-12-26T06:09:59;8.15;;;4.90;;
39016;SDS011;24784;45.582;5.276;2022-12-26T06:12:25;13.48;;;5.45;;
39016;SDS011;24784;45.582;5.276;2022-12-26T06:14:51;16.98;;;5.78;;
39016;SDS011;24784;45.582;5.276;2022-12-26T06:17:17;9.80;;;4.95;;
39016;SDS011;24784;45.582;5.276;2022-12-26T06:19:42;7.63;;;4.38;;
39016;SDS011;24784;45.582;5.276;2022-12-26T06:22:08;11.27;;;5.38;;
39016;SDS011;24784;45.582;5.276;2022-12-26T06:24:35;12.48;;;5.25;;
39016;SDS011;24784;45.582;5.276;2022-12-26T06:27:01;12.45;;;4.65;;
39016;SDS011;24784;45.582;5.276;2022-12-26T06:29:27;8.45;;;5.00;;
39016;SDS011;24784;45.582;5.276;2022-12-26T06:31:53;8.73;;;4.57;;
39016;SDS011;24784;45.582;5.276;2022-12-26T06:34:18;7.75;;;4.72;;
39016;SDS011;24784;45.582;5.276;2022-12-26T06:36:44;9.60;;;5.05;;
39016;SDS011;24784;45.582;5.276;2022-12-26T06:39:10;10.02;;;4.80;;
39016;SDS011;24784;45.582;5.276;2022-12-26T06:41:36;8.68;;;4.95;;
39016;SDS011;24784;45.582;5.276;2022-12-26T06:44:01;9.65;;;4.93;;
39016;SDS011;24784;45.582;5.276;2022-12-26T06:46:27;9.73;;;4.32;;
39016;SDS011;24784;45.582;5.276;2022-12-26T06:48:53;13.90;;;5.18;;
39016;SDS011;24784;45.582;5.276;2022-12-26T06:51:20;7.78;;;5.18;;
39016;SDS011;24784;45.582;5.276;2022-12-26T06:53:48;10.13;;;5.03;;
39016;SDS011;24784;45.582;5.276;2022-12-26T06:56:16;7.15;;;4.80;;
39016;SDS011;24784;45.582;5.276;2022-12-26T06:58:44;10.48;;;4.50;;
39016;SDS011;24784;45.582;5.276;2022-12-26T07:01:11;9.27;;;4.75;;
39016;SDS011;24784;45.582;5.276;2022-12-26T07:03:38;7.95;;;4.22;;
39016;SDS011;24784;45.582;5.276;2022-12-26T07:06:05;10.63;;;4.28;;
39016;SDS011;24784;45.582;5.276;2022-12-26T07:08:35;9.32;;;4.40;;
39016;SDS011;24784;45.582;5.276;2022-12-26T07:11:01;9.00;;;5.32;;
39016;SDS011;24784;45.582;5.276;2022-12-26T07:13:27;9.32;;;4.25;;
39016;SDS011;24784;45.582;5.276;2022-12-26T07:15:53;10.10;;;4.90;;
39016;SDS011;24784;45.582;5.276;2022-12-26T07:18:18;10.10;;;4.60;;
39016;SDS011;24784;45.582;5.276;2022-12-26T07:20:44;8.73;;;4.25;;
39016;SDS011;24784;45.582;5.276;2022-12-26T07:23:10;9.52;;;4.03;;
39016;SDS011;24784;45.582;5.276;2022-12-26T07:25:36;8.55;;;4.60;;
39016;SDS011;24784;45.582;5.276;2022-12-26T07:28:03;11.10;;;4.90;;
39016;SDS011;24784;45.582;5.276;2022-12-26T07:30:29;8.45;;;4.43;;
39016;SDS011;24784;45.582;5.276;2022-12-26T07:32:55;9.63;;;4.90;;
39016;SDS011;24784;45.582;5.276;2022-12-26T07:35:21;8.30;;;4.30;;
39016;SDS011;24784;45.582;5.276;2022-12-26T07:37:46;7.65;;;4.72;;
39016;SDS011;24784;45.582;5.276;2022-12-26T07:40:12;10.48;;;4.72;;
39016;SDS011;24784;45.582;5.276;2022-12-26T07:42:38;10.43;;;4.53;;
39016;SDS011;24784;45.582;5.276;2022-12-26T07:45:04;10.45;;;5.03;;
39016;SDS011;24784;45.582;5.276;2022-12-26T07:47:30;11.02;;;4.43;;
39016;SDS011;24784;45.582;5.276;2022-12-26T07:49:55;10.73;;;5.43;;
39016;SDS011;24784;45.582;5.276;2022-12-26T07:52:21;7.05;;;3.80;;
39016;SDS011;24784;45.582;5.276;2022-12-26T07:54:47;8.38;;;4.22;;
39016;SDS011;24784;45.582;5.276;2022-12-26T07:57:12;8.30;;;4.30;;
39016;SDS011;24784;45.582;5.276;2022-12-26T07:59:38;9.35;;;4.38;;
39016;SDS011;24784;45.582;5.276;2022-12-26T08:02:04;8.25;;;5.07;;
39016;SDS011;24784;45.582;5.276;2022-12-26T08:04:30;8.98;;;4.55;;
39016;SDS011;24784;45.582;5.276;2022-12-26T08:06:56;7.07;;;4.32;;
39016;SDS011;24784;45.582;5.276;2022-12-26T08:09:22;13.05;;;4.50;;
39016;SDS011;24784;45.582;5.276;2022-12-26T08:11:48;10.23;;;4.38;;
39016;SDS011;24784;45.582;5.276;2022-12-26T08:14:14;7.80;;;4.43;;
39016;SDS011;24784;45.582;5.276;2022-12-26T08:16:41;8.45;;;4.47;;
39016;SDS011;24784;45.582;5.276;2022-12-26T08:19:08;9.85;;;4.95;;
39016;SDS011;24784;45.582;5.276;2022-12-26T08:21:34;9.88;;;3.97;;
39016;SDS011;24784;45.582;5.276;2022-12-26T08:24:00;11.48;;;4.57;;
39016;SDS011;24784;45.582;5.276;2022-12-26T08:26:26;7.53;;;4.32;;
39016;SDS011;24784;45.582;5.276;2022-12-26T08:28:53;12.45;;;4.43;;
39016;SDS011;24784;45.582;5.276;2022-12-26T08:31:20;9.88;;;4.82;;
39016;SDS011;24784;45.582;5.276;2022-12-26T08:33:46;11.68;;;4.43;;
39016;SDS011;24784;45.582;5.276;2022-12-26T08:36:12;15.60;;;4.78;;
39016;SDS011;24784;45.582;5.276;2022-12-26T08:38:40;7.50;;;4.18;;
39016;SDS011;24784;45.582;5.276;2022-12-26T08:41:06;10.73;;;4.45;;
39016;SDS011;24784;45.582;5.276;2022-12-26T08:43:32;11.07;;;4.22;;
39016;SDS011;24784;45.582;5.276;2022-12-26T08:48:32;11.10;;;4.93;;
39016;SDS011;24784;45.582;5.276;2022-12-26T08:51:00;7.72;;;4.25;;
39016;SDS011;24784;45.582;5.276;2022-12-26T08:53:36;8.13;;;4.32;;
39016;SDS011;24784;45.582;5.276;2022-12-26T08:56:03;10.05;;;4.05;;
39016;SDS011;24784;45.582;5.276;2022-12-26T08:58:30;8.07;;;4.47;;
39016;SDS011;24784;45.582;5.276;2022-12-26T09:01:07;10.90;;;3.95;;
39016;SDS011;24784;45.582;5.276;2022-12-26T09:03:38;9.38;;;3.85;;
39016;SDS011;24784;45.582;5.276;2022-12-26T09:06:04;9.40;;;4.35;;
39016;SDS011;24784;45.582;5.276;2022-12-26T09:08:30;7.80;;;4.22;;
39016;SDS011;24784;45.582;5.276;2022-12-26T09:11:05;10.48;;;4.35;;
39016;SDS011;24784;45.582;5.276;2022-12-26T09:13:33;7.93;;;4.15;;
39016;SDS011;24784;45.582;5.276;2022-12-26T09:16:18;10.10;;;4.80;;
39016;SDS011;24784;45.582;5.276;2022-12-26T09:18:46;8.95;;;3.55;;
39016;SDS011;24784;45.582;5.276;2022-12-26T09:21:16;11.98;;;4.57;;
39016;SDS011;24784;45.582;5.276;2022-12-26T09:23:42;11.20;;;3.75;;
39016;SDS011;24784;45.582;5.276;2022-12-26T09:26:10;12.45;;;5.30;;
39016;SDS011;24784;45.582;5.276;2022-12-26T09:28:39;6.55;;;4.13;;
39016;SDS011;24784;45.582;5.276;2022-12-26T09:31:06;11.48;;;3.80;;
39016;SDS011;24784;45.582;5.276;2022-12-26T09:33:36;7.25;;;4.00;;
39016;SDS011;24784;45.582;5.276;2022-12-26T09:36:05;10.35;;;4.28;;
39016;SDS011;24784;45.582;5.276;2022-12-26T09:38:33;10.63;;;3.92;;
39016;SDS011;24784;45.582;5.276;2022-12-26T09:43:48;6.72;;;3.92;;
39016;SDS011;24784;45.582;5.276;2022-12-26T09:49:14;7.55;;;3.85;;
39016;SDS011;24784;45.582;5.276;2022-12-26T09:51:44;8.15;;;4.22;;
39016;SDS011;24784;45.582;5.276;2022-12-26T09:54:14;13.73;;;4.15;;
39016;SDS011;24784;45.582;5.276;2022-12-26T09:56:49;8.85;;;4.30;;
39016;SDS011;24784;45.582;5.276;2022-12-26T09:59:16;10.30;;;4.03;;
39016;SDS011;24784;45.582;5.276;2022-12-26T10:01:44;8.88;;;4.05;;
39016;SDS011;24784;45.582;5.276;2022-12-26T10:04:34;8.48;;;3.90;;
39016;SDS011;24784;45.582;5.276;2022-12-26T10:07:21;8.95;;;3.80;;
39016;SDS011;24784;45.582;5.276;2022-12-26T10:10:10;5.78;;;3.90;;
39016;SDS011;24784;45.582;5.276;2022-12-26T10:12:44;6.28;;;3.75;;
39016;SDS011;24784;45.582;5.276;2022-12-26T10:26:55;12.20;;;4.00;;
39016;SDS011;24784;45.582;5.276;2022-12-26T10:29:38;8.60;;;3.83;;
39016;SDS011;24784;45.582;5.276;2022-12-26T10:32:22;8.57;;;3.70;;
39016;SDS011;24784;45.582;5.276;2022-12-26T10:34:58;9.75;;;3.50;;
39016;SDS011;24784;45.582;5.276;2022-12-26T10:37:40;6.97;;;3.40;;
39016;SDS011;24784;45.582;5.276;2022-12-26T10:40:13;12.35;;;4.28;;
39016;SDS011;24784;45.582;5.276;2022-12-26T10:42:45;9.23;;;4.25;;
39016;SDS011;24784;45.582;5.276;2022-12-26T10:47:56;10.70;;;3.40;;
39016;SDS011;24784;45.582;5.276;2022-12-26T10:50:29;6.88;;;4.28;;
39016;SDS011;24784;45.582;5.276;2022-12-26T10:52:57;7.97;;;3.42;;
39016;SDS011;24784;45.582;5.276;2022-12-26T10:55:29;5.60;;;3.03;;
39016;SDS011;24784;45.582;5.276;2022-12-26T10:58:01;10.60;;;3.80;;
39016;SDS011;24784;45.582;5.276;2022-12-26T11:00:30;7.43;;;3.30;;
39016;SDS011;24784;45.582;5.276;2022-12-26T11:03:02;8.18;;;3.55;;
39016;SDS011;24784;45.582;5.276;2022-12-26T11:05:31;7.07;;;3.47;;
39016;SDS011;24784;45.582;5.276;2022-12-26T11:08:13;9.85;;;5.22;;
39016;SDS011;24784;45.582;5.276;2022-12-26T11:13:19;6.95;;;4.05;;
39016;SDS011;24784;45.582;5.276;2022-12-26T11:15:47;8.48;;;3.67;;
39016;SDS011;24784;45.582;5.276;2022-12-26T11:18:30;9.63;;;3.75;;
39016;SDS011;24784;45.582;5.276;2022-12-26T11:21:12;7.75;;;3.47;;
39016;SDS011;24784;45.582;5.276;2022-12-26T11:23:46;7.85;;;3.60;;
39016;SDS011;24784;45.582;5.276;2022-12-26T11:26:26;7.63;;;4.20;;
39016;SDS011;24784;45.582;5.276;2022-12-26T11:31:38;11.85;;;3.53;;
39016;SDS011;24784;45.582;5.276;2022-12-26T11:34:07;6.05;;;3.53;;
39016;SDS011;24784;45.582;5.276;2022-12-26T11:36:43;6.95;;;3.75;;
39016;SDS011;24784;45.582;5.276;2022-12-26T11:39:32;9.20;;;3.58;;
39016;SDS011;24784;45.582;5.276;2022-12-26T11:42:10;10.77;;;3.50;;
39016;SDS011;24784;45.582;5.276;2022-12-26T11:44:42;6.53;;;3.47;;
39016;SDS011;24784;45.582;5.276;2022-12-26T11:49:44;8.77;;;3.47;;
39016;SDS011;24784;45.582;5.276;2022-12-26T11:54:55;8.75;;;4.15;;
39016;SDS011;24784;45.582;5.276;2022-12-26T11:57:28;5.85;;;3.47;;
39016;SDS011;24784;45.582;5.276;2022-12-26T12:00:12;8.30;;;3.28;;
39016;SDS011;24784;45.582;5.276;2022-12-26T12:02:40;9.02;;;3.97;;
39016;SDS011;24784;45.582;5.276;2022-12-26T12:06:09;6.25;;;3.65;;
39016;SDS011;24784;45.582;5.276;2022-12-26T12:38:12;7.55;;;4.18;;
39016;SDS011;24784;45.582;5.276;2022-12-26T12:49:47;8.48;;;3.92;;
39016;SDS011;24784;45.582;5.276;2022-12-26T12:58:01;9.00;;;3.90;;
39016;SDS011;24784;45.582;5.276;2022-12-26T13:00:55;10.68;;;4.25;;
39016;SDS011;24784;45.582;5.276;2022-12-26T13:06:10;9.23;;;4.32;;
39016;SDS011;24784;45.582;5.276;2022-12-26T13:08:59;10.20;;;3.83;;
39016;SDS011;24784;45.582;5.276;2022-12-26T13:11:39;8.77;;;3.90;;
39016;SDS011;24784;45.582;5.276;2022-12-26T13:14:21;8.77;;;5.78;;
39016;SDS011;24784;45.582;5.276;2022-12-26T13:16:50;10.88;;;5.28;;
39016;SDS011;24784;45.582;5.276;2022-12-26T13:19:29;8.82;;;4.15;;
39016;SDS011;24784;45.582;5.276;2022-12-26T13:22:15;8.82;;;4.57;;
39016;SDS011;24784;45.582;5.276;2022-12-26T13:24:48;7.70;;;4.30;;
39016;SDS011;24784;45.582;5.276;2022-12-26T13:27:20;16.33;;;4.93;;
39016;SDS011;24784;45.582;5.276;2022-12-26T13:29:49;12.55;;;4.60;;
39016;SDS011;24784;45.582;5.276;2022-12-26T13:32:21;12.30;;;5.20;;
39016;SDS011;24784;45.582;5.276;2022-12-26T13:34:56;11.70;;;5.13;;
39016;SDS011;24784;45.582;5.276;2022-12-26T13:42:37;10.05;;;4.63;;
39016;SDS011;24784;45.582;5.276;2022-12-26T13:48:00;9.25;;;4.63;;
39016;SDS011;24784;45.582;5.276;2022-12-26T13:53:25;11.57;;;4.65;;
39016;SDS011;24784;45.582;5.276;2022-12-26T14:31:18;11.57;;;4.15;;
39016;SDS011;24784;45.582;5.276;2022-12-26T14:42:24;6.70;;;3.80;;
39016;SDS011;24784;45.582;5.276;2022-12-26T14:45:52;8.93;;;4.68;;
39016;SDS011;24784;45.582;5.276;2022-12-26T14:47:58;9.60;;;4.82;;
39016;SDS011;24784;45.582;5.276;2022-12-26T15:28:55;20.67;;;9.60;;
39016;SDS011;24784;45.582;5.276;2022-12-26T15:31:28;20.20;;;9.68;;
39016;SDS011;24784;45.582;5.276;2022-12-26T15:59:13;16.75;;;9.70;;
39016;SDS011;24784;45.582;5.276;2022-12-26T16:02:13;12.10;;;8.45;;
39016;SDS011;24784;45.582;5.276;2022-12-26T16:10:27;12.25;;;8.50;;
39016;SDS011;24784;45.582;5.276;2022-12-26T16:13:02;16.55;;;9.00;;
39016;SDS011;24784;45.582;5.276;2022-12-26T16:15:42;22.00;;;9.68;;
39016;SDS011;24784;45.582;5.276;2022-12-26T16:18:17;22.08;;;10.75;;
39016;SDS011;24784;45.582;5.276;2022-12-26T16:20:50;15.55;;;9.30;;
39016;SDS011;24784;45.582;5.276;2022-12-26T16:23:37;17.48;;;11.00;;
39016;SDS011;24784;45.582;5.276;2022-12-26T16:26:05;21.90;;;12.07;;
39016;SDS011;24784;45.582;5.276;2022-12-26T16:31:07;14.90;;;9.88;;
39016;SDS011;24784;45.582;5.276;2022-12-26T16:33:40;16.38;;;9.75;;
39016;SDS011;24784;45.582;5.276;2022-12-26T16:36:08;21.90;;;10.10;;
39016;SDS011;24784;45.582;5.276;2022-12-26T16:38:36;21.92;;;10.90;;
39016;SDS011;24784;45.582;5.276;2022-12-26T16:41:05;18.40;;;11.43;;
39016;SDS011;24784;45.582;5.276;2022-12-26T16:43:53;19.23;;;11.50;;
39016;SDS011;24784;45.582;5.276;2022-12-26T16:46:25;19.67;;;10.60;;
39016;SDS011;24784;45.582;5.276;2022-12-26T16:48:57;22.85;;;10.80;;
39016;SDS011;24784;45.582;5.276;2022-12-26T16:51:47;21.13;;;9.82;;
39016;SDS011;24784;45.582;5.276;2022-12-26T16:54:35;16.95;;;10.07;;
39016;SDS011;24784;45.582;5.276;2022-12-26T16:57:05;14.30;;;9.70;;
39016;SDS011;24784;45.582;5.276;2022-12-26T16:59:54;17.40;;;9.07;;
39016;SDS011;24784;45.582;5.276;2022-12-26T17:02:29;19.77;;;10.93;;
39016;SDS011;24784;45.582;5.276;2022-12-26T17:05:03;14.10;;;9.63;;
39016;SDS011;24784;45.582;5.276;2022-12-26T17:07:31;15.85;;;8.93;;
39016;SDS011;24784;45.582;5.276;2022-12-26T17:10:00;25.00;;;11.80;;
39016;SDS011;24784;45.582;5.276;2022-12-26T17:12:27;22.65;;;10.98;;
39016;SDS011;24784;45.582;5.276;2022-12-26T17:14:59;20.48;;;10.90;;
39016;SDS011;24784;45.582;5.276;2022-12-26T17:17:29;17.98;;;9.82;;
39016;SDS011;24784;45.582;5.276;2022-12-26T17:22:50;21.33;;;11.23;;
39016;SDS011;24784;45.582;5.276;2022-12-26T17:27:48;18.08;;;10.48;;
39016;SDS011;24784;45.582;5.276;2022-12-26T17:30:44;21.80;;;11.60;;
39016;SDS011;24784;45.582;5.276;2022-12-26T17:33:17;18.58;;;10.75;;
39016;SDS011;24784;45.582;5.276;2022-12-26T17:36:03;21.13;;;11.85;;
39016;SDS011;24784;45.582;5.276;2022-12-26T17:38:35;18.88;;;10.48;;
39016;SDS011;24784;45.582;5.276;2022-12-26T17:41:02;21.33;;;10.07;;
39016;SDS011;24784;45.582;5.276;2022-12-26T17:43:31;20.45;;;11.00;;
39016;SDS011;24784;45.582;5.276;2022-12-26T17:45:59;24.30;;;10.05;;
39016;SDS011;24784;45.582;5.276;2022-12-26T17:48:25;19.77;;;10.02;;
39016;SDS011;24784;45.582;5.276;2022-12-26T17:50:53;19.55;;;10.70;;
39016;SDS011;24784;45.582;5.276;2022-12-26T17:55:54;19.92;;;10.38;;
39016;SDS011;24784;45.582;5.276;2022-12-26T17:58:21;23.90;;;14.38;;
39016;SDS011;24784;45.582;5.276;2022-12-26T18:00:47;21.77;;;12.68;;
39016;SDS011;24784;45.582;5.276;2022-12-26T18:03:14;20.17;;;11.68;;
39016;SDS011;24784;45.582;5.276;2022-12-26T18:05:40;24.05;;;14.68;;
39016;SDS011;24784;45.582;5.276;2022-12-26T18:08:09;32.72;;;16.10;;
39016;SDS011;24784;45.582;5.276;2022-12-26T18:10:58;21.17;;;13.65;;
39016;SDS011;24784;45.582;5.276;2022-12-26T18:13:24;20.80;;;13.18;;
39016;SDS011;24784;45.582;5.276;2022-12-26T18:15:51;21.25;;;13.55;;
39016;SDS011;24784;45.582;5.276;2022-12-26T18:18:23;15.90;;;11.82;;
39016;SDS011;24784;45.582;5.276;2022-12-26T18:20:53;18.25;;;10.88;;
39016;SDS011;24784;45.582;5.276;2022-12-26T18:23:19;36.65;;;17.58;;
39016;SDS011;24784;45.582;5.276;2022-12-26T18:25:47;17.08;;;10.23;;
39016;SDS011;24784;45.582;5.276;2022-12-26T18:28:16;16.33;;;10.20;;
39016;SDS011;24784;45.582;5.276;2022-12-26T18:30:43;21.77;;;10.63;;
39016;SDS011;24784;45.582;5.276;2022-12-26T18:33:10;21.17;;;11.18;;
39016;SDS011;24784;45.582;5.276;2022-12-26T18:35:37;21.33;;;10.13;;
39016;SDS011;24784;45.582;5.276;2022-12-26T18:38:06;12.13;;;9.00;;
39016;SDS011;24784;45.582;5.276;2022-12-26T18:40:35;17.02;;;10.00;;
39016;SDS011;24784;45.582;5.276;2022-12-26T18:43:04;22.02;;;9.05;;
39016;SDS011;24784;45.582;5.276;2022-12-26T18:45:31;17.80;;;9.00;;
39016;SDS011;24784;45.582;5.276;2022-12-26T18:47:58;13.80;;;8.27;;
39016;SDS011;24784;45.582;5.276;2022-12-26T18:50:25;12.30;;;8.15;;
39016;SDS011;24784;45.582;5.276;2022-12-26T18:52:53;14.80;;;8.77;;
39016;SDS011;24784;45.582;5.276;2022-12-26T18:55:20;16.30;;;9.82;;
39016;SDS011;24784;45.582;5.276;2022-12-26T18:57:47;17.77;;;9.60;;
39016;SDS011;24784;45.582;5.276;2022-12-26T19:00:13;12.63;;;8.25;;
39016;SDS011;24784;45.582;5.276;2022-12-26T19:02:43;16.08;;;8.93;;
39016;SDS011;24784;45.582;5.276;2022-12-26T19:05:27;15.60;;;8.68;;
39016;SDS011;24784;45.582;5.276;2022-12-26T19:07:58;14.15;;;8.95;;
39016;SDS011;24784;45.582;5.276;2022-12-26T19:10:29;13.40;;;8.45;;
39016;SDS011;24784;45.582;5.276;2022-12-26T19:12:57;18.85;;;9.95;;
39016;SDS011;24784;45.582;5.276;2022-12-26T19:15:28;17.05;;;11.55;;
39016;SDS011;24784;45.582;5.276;2022-12-26T19:17:55;22.50;;;12.85;;
39016;SDS011;24784;45.582;5.276;2022-12-26T19:20:21;29.80;;;15.82;;
39016;SDS011;24784;45.582;5.276;2022-12-26T19:22:48;22.33;;;13.52;;
39016;SDS011;24784;45.582;5.276;2022-12-26T19:25:16;22.42;;;13.43;;
39016;SDS011;24784;45.582;5.276;2022-12-26T19:27:43;25.13;;;15.13;;
39016;SDS011;24784;45.582;5.276;2022-12-26T19:30:10;32.53;;;15.82;;
39016;SDS011;24784;45.582;5.276;2022-12-26T19:32:37;21.40;;;12.73;;